createdAt,value
2023-02-13T00:02:42.287Z,98961.78
2023-02-13T00:05:44.226Z,98956.97
2023-02-13T00:08:45.669Z,98952.88
2023-02-13T00:11:47.112Z,98959.84
2023-02-13T00:14:48.636Z,98965.22
2023-02-13T00:17:50.077Z,98960.28
2023-02-13T00:21:05.846Z,98961.91
2023-02-13T00:24:07.459Z,98959.31
2023-02-13T00:27:09.044Z,98964.50
2023-02-13T00:30:11.212Z,98961.91
2023-02-13T00:33:12.726Z,98969.00
2023-02-13T00:36:17.121Z,98972.56
2023-02-13T00:39:19.690Z,98962.31
2023-02-13T00:42:26.412Z,98970.16
2023-02-13T00:45:28.503Z,98976.34
2023-02-13T00:48:31.963Z,98976.56
2023-02-13T00:51:33.560Z,98973.91
2023-02-13T00:54:35.019Z,98978.28
2023-02-13T00:57:36.536Z,98981.75
2023-02-13T01:00:38.770Z,98979.97
2023-02-13T01:03:41.009Z,98985.34
2023-02-13T01:06:42.624Z,98979.06
2023-02-13T01:09:44.556Z,98980.16
2023-02-13T01:12:46.538Z,98988.22
2023-02-13T01:15:49.048Z,98989.53
2023-02-13T01:18:50.715Z,98987.97
2023-02-13T01:21:52.158Z,98991.47
2023-02-13T01:24:53.692Z,98987.88
2023-02-13T01:27:55.222Z,98975.88
2023-02-13T01:30:58.394Z,98984.41
2023-02-13T01:34:00.326Z,98981.81
2023-02-13T01:37:01.846Z,98980.97
2023-02-13T01:40:04.116Z,98981.75
2023-02-13T01:43:09.756Z,98989.94
2023-02-13T01:46:12.764Z,98983.34
2023-02-13T01:49:23.216Z,98985.66
2023-02-13T01:52:25.896Z,98981.44
2023-02-13T01:55:29.524Z,98983.63
2023-02-13T01:58:34.839Z,98986.28
2023-02-13T02:01:37.242Z,98978.56
2023-02-13T02:04:42.182Z,98980.13
2023-02-13T02:07:50.407Z,98980.91
2023-02-13T02:11:02.973Z,98981.16
2023-02-13T02:14:04.585Z,98973.44
2023-02-13T02:17:08.858Z,98971.72
2023-02-13T02:20:31.669Z,98975.09
2023-02-13T02:23:45.938Z,98967.91
2023-02-13T02:27:06.206Z,98966.13
2023-02-13T02:30:38.798Z,98964.44
2023-02-13T02:33:55.181Z,98960.22
2023-02-13T02:37:11.993Z,98959.44
2023-02-13T02:40:30.221Z,98952.69
2023-02-13T02:43:55.322Z,98965.00
2023-02-13T02:47:30.857Z,98953.69
2023-02-13T02:51:01.827Z,98951.97
2023-02-13T02:54:32.684Z,98951.47
2023-02-13T02:58:16.927Z,98954.94
2023-02-13T03:01:46.126Z,98955.72
2023-02-13T03:05:11.961Z,98958.81
2023-02-13T03:08:14.611Z,98957.16
2023-02-13T03:11:35.090Z,98968.13
2023-02-13T03:14:37.662Z,98961.41
2023-02-13T03:17:57.917Z,98966.38
2023-02-13T03:21:36.534Z,98968.06
2023-02-13T03:25:07.913Z,98970.97
2023-02-13T03:28:38.758Z,98967.66
2023-02-13T03:32:01.657Z,98967.66
2023-02-13T03:35:56.161Z,98967.69
2023-02-13T03:39:03.122Z,98972.78
2023-02-13T03:42:10.979Z,98972.91
2023-02-13T03:45:37.365Z,98966.09
2023-02-13T03:49:04.518Z,98973.03
2023-02-13T03:52:16.348Z,98971.16
2023-02-13T03:55:38.508Z,98978.81
2023-02-13T03:59:04.084Z,98983.31
2023-02-13T04:02:15.868Z,98987.63
2023-02-13T04:05:22.298Z,98983.31
2023-02-13T04:08:23.896Z,98987.63
2023-02-13T04:11:35.991Z,98986.06
2023-02-13T04:14:48.110Z,98985.34
2023-02-13T04:17:55.657Z,98987.06
2023-02-13T04:20:57.375Z,98989.75
2023-02-13T04:23:59.032Z,98992.44
2023-02-13T04:27:00.705Z,99004.63
2023-02-13T04:30:02.240Z,98997.25
2023-02-13T04:33:03.971Z,98990.38
2023-02-13T04:36:05.744Z,98991.09
2023-02-13T04:39:07.278Z,98997.88
2023-02-13T04:42:08.784Z,98994.47
2023-02-13T04:45:10.364Z,98996.97
2023-02-13T04:48:11.822Z,98999.34
2023-02-13T04:51:13.288Z,98994.97
2023-02-13T04:54:14.902Z,98981.50
2023-02-13T04:57:16.408Z,98995.44
2023-02-13T05:00:18.438Z,98994.47
2023-02-13T05:03:19.913Z,98990.38
2023-02-13T05:06:21.357Z,98996.53
2023-02-13T05:09:22.961Z,98995.78
2023-02-13T05:12:24.561Z,99002.16
2023-02-13T05:15:26.803Z,98994.91
2023-02-13T05:18:28.406Z,99005.19
2023-02-13T05:21:48.329Z,99006.28
2023-02-13T05:24:49.850Z,99007.00
2023-02-13T05:27:51.340Z,99015.56
2023-02-13T05:30:53.116Z,99007.97
2023-02-13T05:33:54.747Z,99012.31
2023-02-13T05:36:56.586Z,99015.66
2023-02-13T05:39:58.109Z,99013.91
2023-02-13T05:42:59.553Z,99018.47
2023-02-13T05:46:05.973Z,99020.38
2023-02-13T05:49:09.178Z,99020.59
2023-02-13T05:52:10.784Z,99014.19
2023-02-13T05:55:12.386Z,99016.53
2023-02-13T05:58:14.007Z,99002.78
2023-02-13T06:01:15.589Z,99020.59
2023-02-13T06:04:17.165Z,99018.00
2023-02-13T06:07:18.732Z,99019.03
2023-02-13T06:10:20.264Z,99023.38
2023-02-13T06:13:21.768Z,99022.66
2023-02-13T06:16:23.321Z,99024.41
2023-02-13T06:19:24.859Z,99032.88
2023-02-13T06:22:26.418Z,99036.16
2023-02-13T06:25:28.504Z,99029.50
2023-02-13T06:28:30.119Z,99035.28
2023-02-13T06:31:31.710Z,99037.72
2023-02-13T06:34:33.238Z,99045.50
2023-02-13T06:37:34.931Z,99032.88
2023-02-13T06:40:36.469Z,99036.41
2023-02-13T06:43:39.942Z,99040.47
2023-02-13T06:46:43.522Z,99037.63
2023-02-13T06:49:45.152Z,99035.59
2023-02-13T06:52:51.192Z,99039.72
2023-02-13T06:55:53.544Z,99036.94
2023-02-13T06:58:55.049Z,99032.75
2023-02-13T07:01:56.508Z,99038.66
2023-02-13T07:04:58.052Z,99040.38
2023-02-13T07:07:59.560Z,99043.72
2023-02-13T07:11:01.096Z,99042.88
2023-02-13T07:14:02.683Z,99037.53
2023-02-13T07:17:04.273Z,99042.59
2023-02-13T07:20:06.752Z,99040.91
2023-02-13T07:23:08.275Z,99047.25
2023-02-13T07:26:11.144Z,99044.13
2023-02-13T07:29:12.692Z,99055.91
2023-02-13T07:32:14.631Z,99047.66
2023-02-13T07:35:16.191Z,99050.75
2023-02-13T07:38:18.816Z,99049.56
2023-02-13T07:41:20.783Z,99062.72
2023-02-13T07:44:22.291Z,99051.03
2023-02-13T07:47:23.768Z,99053.78
2023-02-13T07:50:25.629Z,99055.94
2023-02-13T07:53:27.149Z,99056.28
2023-02-13T07:56:28.724Z,99061.00
2023-02-13T07:59:30.232Z,99061.31
2023-02-13T08:02:31.766Z,99049.25
2023-02-13T08:05:33.848Z,99049.81
2023-02-13T08:08:35.902Z,99046.38
2023-02-13T08:11:55.449Z,99045.00
2023-02-13T08:14:56.946Z,99047.78
2023-02-13T08:17:58.467Z,99049.81
2023-02-13T08:21:02.967Z,99049.09
2023-02-13T08:24:05.233Z,99057.38
2023-02-13T08:27:06.692Z,99051.59
2023-02-13T08:30:10.203Z,99050.97
2023-02-13T08:33:11.728Z,99046.94
2023-02-13T08:36:13.242Z,99050.13
2023-02-13T08:39:14.766Z,99060.50
2023-02-13T08:42:16.538Z,99051.13
2023-02-13T08:45:18.159Z,99056.69
2023-02-13T08:48:19.601Z,99054.22
2023-02-13T08:51:21.288Z,99055.84
2023-02-13T08:54:22.856Z,99056.84
2023-02-13T08:57:24.414Z,99060.44
2023-02-13T09:00:25.834Z,99062.13
2023-02-13T09:03:27.363Z,99051.56
2023-02-13T09:06:28.995Z,99053.66
2023-02-13T09:09:30.557Z,99058.56
2023-02-13T09:12:32.104Z,99059.69
2023-02-13T09:15:33.934Z,99050.50
2023-02-13T09:18:35.597Z,99049.13
2023-02-13T09:21:37.103Z,99048.44
2023-02-13T09:24:38.680Z,99046.84
2023-02-13T09:27:40.271Z,99051.00
2023-02-13T09:30:41.850Z,99049.31
2023-02-13T09:33:47.941Z,99049.41
2023-02-13T09:36:55.480Z,99045.41
2023-02-13T09:39:57.171Z,99050.28
2023-02-13T09:43:22.839Z,99043.63
2023-02-13T09:46:31.094Z,99044.94
2023-02-13T09:49:36.994Z,99044.56
2023-02-13T09:52:39.582Z,99037.44
2023-02-13T09:55:53.689Z,99044.34
2023-02-13T09:59:10.141Z,99046.47
2023-02-13T10:02:33.499Z,99044.13
2023-02-13T10:06:04.850Z,99036.59
2023-02-13T10:09:21.437Z,99038.53
2023-02-13T10:12:37.834Z,99031.69
2023-02-13T10:15:48.658Z,99030.13
2023-02-13T10:19:31.853Z,99030.25
2023-02-13T10:22:45.698Z,99021.47
2023-02-13T10:25:58.061Z,99023.38
2023-02-13T10:29:25.659Z,99023.78
2023-02-13T10:32:45.381Z,99016.47
2023-02-13T10:36:01.135Z,99019.19
2023-02-13T10:39:13.425Z,99016.06
2023-02-13T10:42:28.385Z,98999.22
2023-02-13T10:45:49.649Z,99007.75
2023-02-13T10:49:17.409Z,98999.53
2023-02-13T10:52:46.780Z,98995.53
2023-02-13T10:56:03.459Z,98992.28
2023-02-13T10:59:40.093Z,98989.00
2023-02-13T11:02:41.596Z,98979.00
2023-02-13T11:05:43.339Z,98986.75
2023-02-13T11:08:47.600Z,98977.47
2023-02-13T11:11:49.349Z,98977.63
2023-02-13T11:15:08.066Z,98975.50
2023-02-13T11:18:19.556Z,98976.13
2023-02-13T11:21:34.314Z,98974.75
2023-02-13T11:24:36.968Z,98971.50
2023-02-13T11:27:39.840Z,98982.16
2023-02-13T11:30:41.316Z,98978.03
2023-02-13T11:33:42.802Z,98977.19
2023-02-13T11:36:44.249Z,98982.00
2023-02-13T11:39:51.221Z,98976.16
2023-02-13T11:42:53.001Z,98974.75
2023-02-13T11:46:17.576Z,98981.34
2023-02-13T11:49:23.090Z,98967.16
2023-02-13T11:52:50.765Z,98978.31
2023-02-13T11:56:06.684Z,98965.66
2023-02-13T11:59:13.842Z,98962.41
2023-02-13T12:02:24.141Z,98963.25
2023-02-13T12:05:28.282Z,98957.63
2023-02-13T12:08:33.034Z,98959.19
2023-02-13T12:11:42.327Z,98960.38
2023-02-13T12:14:46.250Z,98955.38
2023-02-13T12:17:57.012Z,98957.88
2023-02-13T12:21:09.841Z,98952.50
2023-02-13T12:24:30.178Z,98955.00
2023-02-13T12:27:42.925Z,98954.53
2023-02-13T12:30:53.681Z,98945.44
2023-02-13T12:34:07.134Z,98958.56
2023-02-13T12:37:11.849Z,98950.06
2023-02-13T12:40:24.687Z,98948.84
2023-02-13T12:43:54.974Z,98938.66
2023-02-13T12:47:08.340Z,98943.19
2023-02-13T12:50:25.027Z,98941.41
2023-02-13T12:53:42.665Z,98939.34
2023-02-13T12:56:56.274Z,98933.72
2023-02-13T13:00:09.664Z,98941.34
2023-02-13T13:03:35.560Z,98937.38
2023-02-13T13:06:54.218Z,98944.94
2023-02-13T13:09:58.609Z,98936.84
2023-02-13T13:13:16.629Z,98932.63
2023-02-13T13:16:20.869Z,98932.63
2023-02-13T13:19:22.333Z,98934.91
2023-02-13T13:22:44.168Z,98924.53
2023-02-13T13:26:05.235Z,98934.19
2023-02-13T13:29:27.403Z,98928.31
2023-02-13T13:32:30.899Z,98934.06
2023-02-13T13:35:34.278Z,98930.53
2023-02-13T13:39:04.540Z,98925.28
2023-02-13T13:42:19.481Z,98923.34
2023-02-13T13:45:37.725Z,98929.28
2023-02-13T13:48:57.346Z,98923.06
2023-02-13T13:52:24.800Z,98926.59
2023-02-13T13:55:46.541Z,98921.66
2023-02-13T13:58:50.605Z,98926.06
2023-02-13T14:02:17.692Z,98924.63
2023-02-13T14:05:25.185Z,98920.50
2023-02-13T14:08:41.823Z,98922.19
2023-02-13T14:11:47.177Z,98923.84
2023-02-13T14:14:49.197Z,98919.84
2023-02-13T14:17:53.113Z,98916.78
2023-02-13T14:21:01.149Z,98922.06
2023-02-13T14:24:11.841Z,98914.13
2023-02-13T14:27:25.376Z,98912.72
2023-02-13T14:30:31.184Z,98919.47
2023-02-13T14:33:33.502Z,98927.03
2023-02-13T14:36:40.860Z,98924.75
2023-02-13T14:39:43.430Z,98913.50
2023-02-13T14:42:50.114Z,98920.28
2023-02-13T14:46:06.742Z,98914.56
2023-02-13T14:49:17.816Z,98909.91
2023-02-13T14:52:26.398Z,98906.06
2023-02-13T14:55:45.754Z,98916.13
2023-02-13T14:59:06.966Z,98914.47
2023-02-13T15:02:23.697Z,98914.75
2023-02-13T15:05:32.894Z,98903.97
2023-02-13T15:08:46.082Z,98909.38
2023-02-13T15:11:47.773Z,98914.88
2023-02-13T15:14:49.291Z,98904.25
2023-02-13T15:17:59.284Z,98909.81
2023-02-13T15:21:01.586Z,98903.34
2023-02-13T15:24:03.780Z,98902.59
2023-02-13T15:27:07.303Z,98906.09
2023-02-13T15:30:23.943Z,98899.00
2023-02-13T15:33:47.453Z,98902.56
2023-02-13T15:36:49.256Z,98900.22
2023-02-13T15:39:50.740Z,98895.97
2023-02-13T15:42:53.140Z,98906.22
2023-02-13T15:45:57.458Z,98913.63
2023-02-13T15:49:13.859Z,98906.69
2023-02-13T15:52:18.910Z,98903.66
2023-02-13T15:55:30.115Z,98901.28
2023-02-13T15:58:34.186Z,98896.31
2023-02-13T16:01:36.017Z,98902.31
2023-02-13T16:04:37.875Z,98906.22
2023-02-13T16:07:51.295Z,98901.59
2023-02-13T16:11:27.808Z,98899.56
2023-02-13T16:14:31.883Z,98896.94
2023-02-13T16:17:36.625Z,98903.88
2023-02-13T16:20:38.926Z,98897.16
2023-02-13T16:23:40.663Z,98897.16
2023-02-13T16:26:44.133Z,98902.63
2023-02-13T16:29:54.682Z,98901.16
2023-02-13T16:33:29.724Z,98900.41
2023-02-13T16:36:31.241Z,98901.31
2023-02-13T16:39:33.235Z,98904.72
2023-02-13T16:42:34.762Z,98903.75
2023-02-13T16:45:36.469Z,98906.53
2023-02-13T16:48:38.435Z,98905.47
2023-02-13T16:51:44.612Z,98909.31
2023-02-13T16:54:50.998Z,98903.47
2023-02-13T16:58:02.056Z,98907.16
2023-02-13T17:01:05.305Z,98913.94
2023-02-13T17:04:22.384Z,98910.56
2023-02-13T17:07:29.891Z,98919.72
2023-02-13T17:10:34.151Z,98925.34
2023-02-13T17:13:35.848Z,98923.97
2023-02-13T17:16:37.759Z,98925.03
2023-02-13T17:19:39.379Z,98930.00
2023-02-13T17:22:43.788Z,98933.03
2023-02-13T17:25:47.417Z,98935.47
2023-02-13T17:28:49.082Z,98926.88
2023-02-13T17:31:54.328Z,98937.59
2023-02-13T17:34:56.055Z,98939.31
2023-02-13T17:37:57.710Z,98943.97
2023-02-13T17:41:00.597Z,98950.09
2023-02-13T17:44:02.296Z,98949.81
2023-02-13T17:47:03.991Z,98952.59
2023-02-13T17:50:10.519Z,98953.34
2023-02-13T17:53:27.602Z,98960.44
2023-02-13T17:56:29.190Z,98960.03
2023-02-13T17:59:30.627Z,98956.16
2023-02-13T18:02:33.598Z,98957.78
2023-02-13T18:05:35.114Z,98956.91
2023-02-13T18:08:36.595Z,98958.97
2023-02-13T18:11:38.070Z,98954.81
2023-02-13T18:14:39.615Z,98954.84
2023-02-13T18:17:41.986Z,98958.34
2023-02-13T18:20:44.253Z,98957.88
2023-02-13T18:23:45.757Z,98958.03
2023-02-13T18:26:47.479Z,98960.81
2023-02-13T18:29:49.064Z,98959.16
2023-02-13T18:32:53.053Z,98957.56
2023-02-13T18:36:01.422Z,98960.41
2023-02-13T18:39:03.768Z,98957.72
2023-02-13T18:42:05.882Z,98948.38
2023-02-13T18:45:07.746Z,98945.56
2023-02-13T18:48:09.551Z,98950.47
2023-02-13T18:51:11.164Z,98953.72
2023-02-13T18:54:13.145Z,98952.56
2023-02-13T18:57:15.095Z,98957.09
2023-02-13T19:00:17.230Z,98957.25
2023-02-13T19:03:18.794Z,98951.28
2023-02-13T19:06:23.438Z,98957.50
2023-02-13T19:09:24.995Z,98962.97
2023-02-13T19:12:26.577Z,98958.50
2023-02-13T19:15:28.019Z,98961.94
2023-02-13T19:18:29.541Z,98959.44
2023-02-13T19:21:32.738Z,98957.31
2023-02-13T19:24:34.204Z,98962.22
2023-02-13T19:27:37.727Z,98957.69
2023-02-13T19:30:39.414Z,98966.53
2023-02-13T19:33:41.243Z,98958.09
2023-02-13T19:36:42.778Z,98961.88
2023-02-13T19:39:44.281Z,98958.03
2023-02-13T19:42:45.736Z,98960.34
2023-02-13T19:45:47.404Z,98965.56
2023-02-13T19:48:49.322Z,98963.72
2023-02-13T19:51:50.875Z,98959.38
2023-02-13T19:54:54.101Z,98954.53
2023-02-13T19:57:55.570Z,98963.59
2023-02-13T20:01:08.983Z,98959.38
2023-02-13T20:04:11.423Z,98963.81
2023-02-13T20:07:13.863Z,98957.00
2023-02-13T20:10:15.401Z,98958.28
2023-02-13T20:13:16.848Z,98958.69
2023-02-13T20:16:18.610Z,98959.84
2023-02-13T20:19:20.096Z,98962.78
2023-02-13T20:22:21.726Z,98953.31
2023-02-13T20:25:23.258Z,98953.00
2023-02-13T20:28:24.789Z,98969.25
2023-02-13T20:31:27.039Z,98964.25
2023-02-13T20:34:31.667Z,98971.22
2023-02-13T20:37:39.041Z,98964.63
2023-02-13T20:40:40.567Z,98959.13
2023-02-13T20:43:42.562Z,98953.53
2023-02-13T20:46:44.168Z,98961.75
2023-02-13T20:49:45.763Z,98963.78
2023-02-13T20:52:47.367Z,98962.41
2023-02-13T20:55:49.010Z,98963.69
2023-02-13T20:58:53.254Z,98968.34
2023-02-13T21:01:54.819Z,98969.13
2023-02-13T21:04:56.594Z,98963.16
2023-02-13T21:07:58.200Z,98963.66
2023-02-13T21:11:04.456Z,98962.66
2023-02-13T21:14:06.628Z,98969.81
2023-02-13T21:17:09.633Z,98971.91
2023-02-13T21:20:11.469Z,98966.88
2023-02-13T21:23:12.977Z,98970.25
2023-02-13T21:26:16.923Z,98972.16
2023-02-13T21:29:19.315Z,98962.03
2023-02-13T21:32:20.978Z,98969.78
2023-02-13T21:35:22.465Z,98964.66
2023-02-13T21:38:24.356Z,98973.16
2023-02-13T21:41:26.215Z,98966.00
2023-02-13T21:44:27.753Z,98965.28
2023-02-13T21:47:29.301Z,98949.53
2023-02-13T21:50:30.830Z,98952.75
2023-02-13T21:53:32.399Z,98953.59
2023-02-13T21:56:36.764Z,98954.72
2023-02-13T21:59:38.291Z,98964.38
2023-02-13T22:02:39.818Z,98959.09
2023-02-13T22:05:47.899Z,98965.44
2023-02-13T22:08:49.553Z,98963.19
2023-02-13T22:11:52.706Z,98968.16
2023-02-13T22:14:54.445Z,98955.22
2023-02-13T22:17:56.028Z,98962.19
2023-02-13T22:20:58.059Z,98954.03
2023-02-13T22:24:00.254Z,98961.25
2023-02-13T22:27:03.059Z,98966.47
2023-02-13T22:30:06.786Z,98963.03
2023-02-13T22:33:09.011Z,98963.31
2023-02-13T22:36:10.585Z,98965.78
2023-02-13T22:39:12.742Z,98969.94
2023-02-13T22:42:14.437Z,98958.47
2023-02-13T22:45:16.205Z,98968.09
2023-02-13T22:48:17.669Z,98969.63
2023-02-13T22:51:22.556Z,98966.25
2023-02-13T22:54:23.986Z,98965.41
2023-02-13T22:57:25.631Z,98976.91
2023-02-13T23:00:27.109Z,98970.94
2023-02-13T23:03:32.506Z,98971.00
2023-02-13T23:06:34.029Z,98965.97
2023-02-13T23:09:35.485Z,98966.03
2023-02-13T23:12:37.094Z,98965.19
2023-02-13T23:15:38.627Z,98968.63
2023-02-13T23:18:40.432Z,98968.56
2023-02-13T23:21:41.919Z,98966.88
2023-02-13T23:24:43.360Z,98953.03
2023-02-13T23:27:44.868Z,98964.84
2023-02-13T23:30:46.423Z,98963.44
2023-02-13T23:33:47.941Z,98959.41
2023-02-13T23:36:49.566Z,98959.75
2023-02-13T23:39:51.064Z,98954.34
2023-02-13T23:42:52.647Z,98962.66
2023-02-13T23:45:54.138Z,98953.88
2023-02-13T23:48:55.620Z,98958.41
2023-02-13T23:51:57.084Z,98951.59
2023-02-13T23:54:58.615Z,98947.59
2023-02-13T23:58:00.754Z,98945.13
